Terminal Aerodrome Forecast
Issued by NWS

Home | Current Version | Previous Version | Text Only | Print | Product List | Glossary On
Versions: 1 2 3 4 5 6 7 8 9 10 11 12 13 14 15
231
FTUS41 KCLE 211728
TAFFDY
TAF
KFDY 211728Z 2118/2218 06005KT P6SM OVC250
     FM212200 VRB03KT P6SM OVC150
     FM221200 06006KT P6SM SCT150=

USA.gov is the U.S. government's official web portal to all federal, state and local government web resources and services.